createdAt,value
2023-01-25T00:00:32.339Z,1.10
2023-01-25T00:01:32.317Z,1.07
2023-01-25T00:02:32.322Z,1.06
2023-01-25T00:03:32.359Z,1.07
2023-01-25T00:04:32.449Z,1.08
2023-01-25T00:05:32.402Z,1.07
2023-01-25T00:06:32.261Z,1.08
2023-01-25T00:07:32.283Z,1.10
2023-01-25T00:08:32.244Z,1.10
2023-01-25T00:09:32.226Z,1.12
2023-01-25T00:10:32.264Z,1.10
2023-01-25T00:11:32.223Z,1.08
2023-01-25T00:12:32.391Z,1.08
2023-01-25T00:13:32.185Z,1.07
2023-01-25T00:14:32.184Z,1.06
2023-01-25T00:15:32.194Z,1.03
2023-01-25T00:16:32.869Z,1.01
2023-01-25T00:17:32.142Z,0.98
2023-01-25T00:18:32.139Z,0.98
2023-01-25T00:19:32.135Z,0.98
2023-01-25T00:20:32.115Z,0.98
2023-01-25T00:21:32.185Z,1.00
2023-01-25T00:22:32.147Z,1.01
2023-01-25T00:23:32.470Z,1.00
2023-01-25T00:24:32.090Z,0.97
2023-01-25T00:25:32.208Z,0.97
2023-01-25T00:26:32.061Z,0.98
2023-01-25T00:27:32.099Z,1.00
2023-01-25T00:28:32.090Z,0.98
2023-01-25T00:29:32.034Z,0.97
2023-01-25T00:30:32.085Z,0.98
2023-01-25T00:31:32.123Z,0.97
2023-01-25T00:32:32.176Z,0.96
2023-01-25T00:33:32.023Z,0.92
2023-01-25T00:34:32.440Z,0.96
2023-01-25T00:35:32.003Z,0.96
2023-01-25T00:36:32.722Z,0.97
2023-01-25T00:38:50.478Z,0.97
2023-01-25T00:39:52.179Z,0.97
2023-01-25T00:43:33.309Z,0.96
2023-01-25T00:44:33.819Z,0.94
2023-01-25T00:45:33.843Z,0.94
2023-01-25T00:46:33.922Z,0.92
2023-01-25T00:58:06.964Z,0.90
2023-01-25T00:58:32.843Z,0.86
2023-01-25T01:00:11.917Z,0.88
2023-01-25T01:00:24.958Z,0.86
2023-01-25T01:01:31.963Z,0.88
2023-01-25T01:02:32.377Z,0.88
2023-01-25T01:03:19.766Z,0.86
2023-01-25T01:04:22.196Z,0.86
2023-01-25T01:05:33.054Z,0.88
2023-01-25T01:06:50.458Z,0.85
2023-01-25T01:22:26.076Z,0.79
2023-01-25T01:24:50.255Z,0.86
2023-01-25T01:26:00.096Z,0.85
2023-01-25T01:26:59.698Z,0.83
2023-01-25T01:30:20.223Z,0.89
2023-01-25T01:31:31.179Z,0.85
2023-01-25T01:32:21.153Z,0.86
2023-01-25T01:33:21.963Z,0.86
2023-01-25T01:38:32.806Z,0.86
2023-01-25T01:39:11.730Z,0.89
2023-01-25T01:41:42.298Z,0.89
2023-01-25T02:09:09.994Z,0.82
2023-01-25T02:10:39.937Z,0.78
2023-01-25T02:12:24.520Z,0.80
2023-01-25T02:13:24.583Z,0.82
2023-01-25T02:14:24.850Z,0.80
2023-01-25T02:15:34.176Z,0.82
2023-01-25T02:16:24.553Z,0.80
2023-01-25T02:18:44.537Z,0.85
2023-01-25T02:19:44.138Z,0.83
2023-01-25T02:20:44.103Z,0.83
2023-01-25T02:21:44.069Z,0.85
2023-01-25T02:22:44.094Z,0.83
2023-01-25T02:24:20.729Z,0.83
2023-01-25T02:24:45.967Z,0.82
2023-01-25T02:25:44.916Z,0.82
2023-01-25T02:27:01.640Z,0.82
2023-01-25T02:27:47.606Z,0.80
2023-01-25T02:28:45.975Z,0.82
2023-01-25T02:30:37.061Z,0.83
2023-01-25T02:30:45.777Z,0.83
2023-01-25T02:31:48.319Z,0.82
2023-01-25T02:32:45.756Z,0.82
2023-01-25T02:33:44.331Z,0.83
2023-01-25T02:34:53.504Z,0.83
2023-01-25T02:35:52.132Z,0.85
2023-01-25T02:36:45.156Z,0.86
2023-01-25T02:37:46.735Z,0.88
2023-01-25T02:38:45.650Z,0.86
2023-01-25T02:39:43.962Z,0.89
2023-01-25T02:41:16.629Z,0.86
2023-01-25T02:41:43.915Z,0.86
2023-01-25T02:42:48.116Z,0.88
2023-01-25T02:43:48.325Z,0.89
2023-01-25T02:44:48.117Z,0.90
2023-01-25T02:45:43.902Z,0.90
2023-01-25T02:46:53.281Z,0.89
2023-01-25T02:47:43.823Z,0.90
2023-01-25T02:48:45.660Z,0.88
2023-01-25T02:49:47.508Z,0.88
2023-01-25T02:50:44.472Z,0.88
2023-01-25T02:52:17.773Z,0.88
2023-01-25T02:52:51.070Z,0.88
2023-01-25T02:53:43.815Z,0.86
2023-01-25T02:54:45.583Z,0.86
2023-01-25T02:55:47.060Z,0.85
2023-01-25T02:56:44.933Z,0.88
2023-01-25T02:57:48.418Z,0.86
2023-01-25T02:58:43.993Z,0.85
2023-01-25T02:59:46.102Z,0.86
2023-01-25T03:00:43.672Z,0.86
2023-01-25T03:01:43.797Z,0.86
2023-01-25T03:02:52.079Z,0.85
2023-01-25T03:03:43.618Z,0.83
2023-01-25T03:04:46.509Z,0.82
2023-01-25T03:05:52.687Z,0.80
2023-01-25T03:06:43.556Z,0.79
2023-01-25T03:07:43.569Z,0.80
2023-01-25T03:08:43.589Z,0.80
2023-01-25T03:09:51.165Z,0.80
2023-01-25T03:11:56.217Z,0.83
2023-01-25T03:12:56.300Z,0.82
2023-01-25T03:13:56.177Z,0.80
2023-01-25T03:14:56.161Z,0.82
2023-01-25T03:15:56.193Z,0.82
2023-01-25T03:16:56.225Z,0.83
2023-01-25T03:17:56.163Z,0.85
2023-01-25T03:18:56.133Z,0.83
2023-01-25T03:19:56.087Z,0.83
2023-01-25T03:20:56.109Z,0.83
2023-01-25T03:21:56.066Z,0.83
2023-01-25T03:22:56.086Z,0.82
2023-01-25T03:23:56.128Z,0.82
2023-01-25T03:24:56.094Z,0.82
2023-01-25T03:25:56.021Z,0.82
2023-01-25T03:26:56.006Z,0.80
2023-01-25T03:27:56.083Z,0.83
2023-01-25T03:28:55.983Z,0.82
2023-01-25T03:30:04.172Z,0.83
2023-01-25T03:30:56.031Z,0.86
2023-01-25T03:31:56.092Z,0.83
2023-01-25T03:32:56.035Z,0.85
2023-01-25T03:33:55.967Z,0.86
2023-01-25T03:34:56.091Z,0.86
2023-01-25T03:35:55.935Z,0.86
2023-01-25T03:36:56.705Z,0.85
2023-01-25T03:37:55.942Z,0.85
2023-01-25T03:38:55.888Z,0.85
2023-01-25T03:39:55.886Z,0.86
2023-01-25T03:40:55.889Z,0.86
2023-01-25T03:41:55.857Z,0.85
2023-01-25T03:42:55.976Z,0.85
2023-01-25T03:43:55.827Z,0.85
2023-01-25T03:44:55.812Z,0.83
2023-01-25T03:45:55.849Z,0.83
2023-01-25T03:46:55.852Z,0.83
2023-01-25T03:47:55.798Z,0.80
2023-01-25T03:48:55.774Z,0.82
2023-01-25T03:49:55.797Z,0.82
2023-01-25T03:50:55.770Z,0.82
2023-01-25T03:51:55.737Z,0.82
2023-01-25T03:52:56.176Z,0.82
2023-01-25T03:53:55.716Z,0.83
2023-01-25T03:54:56.659Z,0.83
2023-01-25T03:55:55.699Z,0.85
2023-01-25T03:56:55.675Z,0.85
2023-01-25T03:57:55.715Z,0.86
2023-01-25T03:58:55.672Z,0.85
2023-01-25T03:59:56.541Z,0.86
2023-01-25T04:00:55.739Z,0.85
2023-01-25T04:01:55.722Z,0.85
2023-01-25T04:02:55.611Z,0.85
2023-01-25T04:03:55.625Z,0.82
2023-01-25T04:04:55.586Z,0.78
2023-01-25T04:05:55.603Z,0.76
2023-01-25T04:06:55.754Z,0.76
2023-01-25T04:07:55.555Z,0.76
2023-01-25T04:08:55.614Z,0.78
2023-01-25T04:09:55.562Z,0.75
2023-01-25T04:10:55.538Z,0.75
2023-01-25T04:11:55.601Z,0.72
2023-01-25T04:12:55.505Z,0.71
2023-01-25T04:13:55.548Z,0.71
2023-01-25T04:14:55.499Z,0.70
2023-01-25T04:15:55.549Z,0.70
2023-01-25T04:16:55.543Z,0.70
2023-01-25T04:17:55.629Z,0.68
2023-01-25T04:18:55.445Z,0.67
2023-01-25T04:19:55.435Z,0.68
2023-01-25T04:20:55.428Z,0.68
2023-01-25T04:21:55.400Z,0.68
2023-01-25T04:22:55.397Z,0.71
2023-01-25T04:23:55.437Z,0.67
2023-01-25T04:24:55.387Z,0.67
2023-01-25T04:25:55.365Z,0.67
2023-01-25T04:26:56.046Z,0.70
2023-01-25T04:27:55.379Z,0.68
2023-01-25T04:28:55.357Z,0.71
2023-01-25T04:29:55.344Z,0.71
2023-01-25T04:30:55.327Z,0.75
2023-01-25T04:31:55.524Z,0.72
2023-01-25T04:32:55.312Z,0.72
2023-01-25T04:33:55.681Z,0.71
2023-01-25T04:34:55.255Z,0.68
2023-01-25T04:35:55.260Z,0.70
2023-01-25T04:36:55.242Z,0.70
2023-01-25T04:37:55.239Z,0.70
2023-01-25T04:38:55.237Z,0.71
2023-01-25T04:39:55.220Z,0.71
2023-01-25T04:40:55.200Z,0.71
2023-01-25T04:41:55.177Z,0.70
2023-01-25T04:42:55.332Z,0.67
2023-01-25T04:43:55.193Z,0.68
2023-01-25T04:44:55.199Z,0.67
2023-01-25T04:45:55.193Z,0.65
2023-01-25T04:46:55.181Z,0.62
2023-01-25T04:47:55.106Z,0.62
2023-01-25T04:48:55.123Z,0.62
2023-01-25T04:49:55.112Z,0.64
2023-01-25T04:50:55.083Z,0.65
2023-01-25T04:51:55.080Z,0.65
2023-01-25T04:52:55.061Z,0.65
2023-01-25T04:53:55.085Z,0.67
2023-01-25T04:54:55.033Z,0.64
2023-01-25T04:55:55.143Z,0.64
2023-01-25T04:56:55.017Z,0.62
2023-01-25T04:57:55.050Z,0.64
2023-01-25T04:58:55.012Z,0.67
2023-01-25T04:59:54.985Z,0.67
2023-01-25T05:00:55.040Z,0.68
2023-01-25T05:01:54.991Z,0.68
2023-01-25T05:02:54.965Z,0.67
2023-01-25T05:03:55.029Z,0.67
2023-01-25T05:04:55.715Z,0.67
2023-01-25T05:05:54.978Z,0.67
2023-01-25T05:06:54.944Z,0.68
2023-01-25T05:07:54.896Z,0.65
2023-01-25T05:08:54.892Z,0.67
2023-01-25T05:09:54.919Z,0.64
2023-01-25T05:10:54.959Z,0.62
2023-01-25T05:11:54.867Z,0.64
2023-01-25T05:12:54.846Z,0.62
2023-01-25T05:13:54.878Z,0.65
2023-01-25T05:14:54.813Z,0.64
2023-01-25T05:15:54.809Z,0.65
2023-01-25T05:16:54.848Z,0.65
2023-01-25T05:17:54.793Z,0.67
2023-01-25T05:18:54.873Z,0.68
2023-01-25T05:19:54.767Z,0.68
2023-01-25T05:20:54.785Z,0.70
2023-01-25T05:21:54.784Z,0.67
2023-01-25T05:22:54.779Z,0.67
2023-01-25T05:23:54.822Z,0.67
2023-01-25T05:24:54.738Z,0.68
2023-01-25T05:25:54.689Z,0.67
2023-01-25T05:26:54.845Z,0.70
2023-01-25T05:27:54.685Z,0.71
2023-01-25T05:28:54.662Z,0.71
2023-01-25T05:29:54.774Z,0.72
2023-01-25T05:30:54.676Z,0.72
2023-01-25T05:31:54.676Z,0.72
2023-01-25T05:32:54.652Z,0.71
2023-01-25T05:33:54.642Z,0.71
2023-01-25T05:34:54.608Z,0.70
2023-01-25T05:35:54.579Z,0.70
2023-01-25T05:36:54.580Z,0.70
2023-01-25T05:37:54.578Z,0.70
2023-01-25T05:38:54.623Z,0.67
2023-01-25T05:39:54.577Z,0.65
2023-01-25T05:40:54.540Z,0.65
2023-01-25T05:41:54.541Z,0.65
2023-01-25T05:42:54.575Z,0.65
2023-01-25T05:43:54.526Z,0.68
2023-01-25T05:44:54.530Z,0.70
2023-01-25T05:45:54.558Z,0.68
2023-01-25T05:46:54.491Z,0.70
2023-01-25T05:47:55.236Z,0.71
2023-01-25T05:48:54.445Z,0.71
2023-01-25T05:49:54.444Z,0.72
2023-01-25T05:50:54.454Z,0.71
2023-01-25T05:51:54.399Z,0.72
2023-01-25T05:52:54.405Z,0.70
2023-01-25T05:53:54.398Z,0.70
2023-01-25T05:54:54.398Z,0.65
2023-01-25T05:55:54.381Z,0.67
2023-01-25T05:56:54.378Z,0.64
2023-01-25T05:57:54.346Z,0.61
2023-01-25T05:58:54.341Z,0.60
2023-01-25T05:59:54.347Z,0.61
2023-01-25T06:00:54.361Z,0.61
2023-01-25T06:01:54.308Z,0.62
2023-01-25T06:02:54.437Z,0.60
2023-01-25T06:03:54.269Z,0.61
2023-01-25T06:04:54.292Z,0.61
2023-01-25T06:05:55.209Z,0.65
2023-01-25T06:06:54.269Z,0.64
2023-01-25T06:07:54.231Z,0.67
2023-01-25T06:08:54.213Z,0.68
2023-01-25T06:09:54.227Z,0.68
2023-01-25T06:10:54.204Z,0.68
2023-01-25T06:11:54.191Z,0.71
2023-01-25T06:12:54.211Z,0.71
2023-01-25T06:13:54.159Z,0.75
2023-01-25T06:14:54.158Z,0.76
2023-01-25T06:15:54.193Z,0.79
2023-01-25T06:16:54.128Z,0.79
2023-01-25T06:17:54.136Z,0.78
2023-01-25T06:18:54.139Z,0.76
2023-01-25T06:19:54.162Z,0.75
2023-01-25T06:20:54.105Z,0.76
2023-01-25T06:21:54.138Z,0.75
2023-01-25T06:22:54.139Z,0.72
2023-01-25T06:23:54.147Z,0.70
2023-01-25T06:24:54.057Z,0.70
2023-01-25T06:25:54.081Z,0.70
2023-01-25T06:26:54.020Z,0.67
2023-01-25T06:27:54.010Z,0.67
2023-01-25T06:28:54.635Z,0.67
2023-01-25T06:29:53.977Z,0.68
2023-01-25T06:30:54.039Z,0.70
2023-01-25T06:31:54.069Z,0.70
2023-01-25T06:32:53.961Z,0.70
2023-01-25T06:33:53.976Z,0.71
2023-01-25T06:34:53.960Z,0.72
2023-01-25T06:35:53.922Z,0.75
2023-01-25T06:36:53.929Z,0.71
2023-01-25T06:37:53.930Z,0.72
2023-01-25T06:38:54.722Z,0.72
2023-01-25T06:39:54.003Z,0.70
2023-01-25T06:40:53.875Z,0.68
2023-01-25T06:41:53.919Z,0.70
2023-01-25T06:42:57.040Z,0.70
2023-01-25T06:44:01.871Z,0.70
2023-01-25T06:44:59.059Z,0.71
2023-01-25T06:50:14.119Z,0.71
2023-01-25T06:50:21.470Z,0.71
2023-01-25T06:51:22.633Z,0.72
2023-01-25T06:52:22.753Z,0.72
2023-01-25T06:56:03.343Z,0.75
2023-01-25T06:56:12.913Z,0.75
2023-01-25T07:01:30.435Z,0.71
2023-01-25T07:02:40.019Z,0.67
2023-01-25T07:03:31.309Z,0.67
2023-01-25T07:04:39.476Z,0.62
2023-01-25T07:05:31.249Z,0.62
2023-01-25T07:06:32.943Z,0.62
2023-01-25T07:07:31.041Z,0.61
2023-01-25T07:08:31.090Z,0.61
2023-01-25T07:09:31.131Z,0.61
2023-01-25T07:10:33.842Z,0.61
2023-01-25T07:11:32.908Z,0.60
2023-01-25T07:12:30.992Z,0.58
2023-01-25T07:13:30.926Z,0.60
2023-01-25T07:14:30.988Z,0.57
2023-01-25T07:15:30.907Z,0.57
2023-01-25T07:16:30.911Z,0.53
2023-01-25T07:17:30.893Z,0.53
2023-01-25T07:18:30.893Z,0.57
2023-01-25T07:19:30.929Z,0.57
2023-01-25T07:20:30.861Z,0.53
2023-01-25T07:21:30.870Z,0.58
2023-01-25T07:22:32.411Z,0.53
2023-01-25T07:23:30.838Z,0.53
2023-01-25T07:24:30.822Z,0.53
2023-01-25T07:25:30.821Z,0.58
2023-01-25T07:26:30.893Z,0.57
2023-01-25T07:27:30.870Z,0.57
2023-01-25T07:28:30.785Z,0.48
2023-01-25T07:29:30.778Z,0.49
2023-01-25T07:30:30.792Z,0.46
2023-01-25T07:31:30.802Z,0.46
2023-01-25T07:32:30.994Z,0.45
2023-01-25T07:33:30.728Z,0.48
2023-01-25T07:34:30.781Z,0.51
2023-01-25T07:35:32.508Z,0.53
2023-01-25T07:36:32.414Z,0.53
2023-01-25T07:37:32.475Z,0.53
2023-01-25T07:38:30.653Z,0.57
2023-01-25T07:39:30.674Z,0.57
2023-01-25T07:40:30.654Z,0.58
2023-01-25T07:41:30.700Z,0.58
2023-01-25T07:42:30.612Z,0.58
2023-01-25T07:43:31.411Z,0.60
2023-01-25T07:44:30.613Z,0.60
2023-01-25T07:45:30.579Z,0.58
2023-01-25T07:46:30.598Z,0.57
2023-01-25T07:47:30.541Z,0.52
2023-01-25T07:48:30.609Z,0.52
2023-01-25T07:49:30.540Z,0.51
2023-01-25T07:50:30.532Z,0.52
2023-01-25T07:51:30.526Z,0.49
2023-01-25T07:52:30.547Z,0.51
2023-01-25T07:53:39.889Z,0.49
2023-01-25T07:54:40.048Z,0.51
2023-01-25T07:55:30.465Z,0.53
2023-01-25T07:56:31.264Z,0.53
2023-01-25T07:57:35.246Z,0.58
2023-01-25T07:58:30.456Z,0.60
2023-01-25T07:59:30.448Z,0.60
2023-01-25T08:00:30.482Z,0.60
2023-01-25T08:01:34.767Z,0.61
2023-01-25T08:02:30.476Z,0.62
2023-01-25T08:03:30.405Z,0.64
2023-01-25T08:04:30.395Z,0.62
2023-01-25T08:05:30.446Z,0.65
2023-01-25T08:06:33.409Z,0.64
2023-01-25T08:07:30.341Z,0.67
2023-01-25T08:08:30.313Z,0.65
2023-01-25T08:09:30.318Z,0.61
2023-01-25T08:10:30.294Z,0.60
2023-01-25T08:11:30.310Z,0.58
2023-01-25T08:12:30.303Z,0.58
2023-01-25T08:13:30.270Z,0.60
2023-01-25T08:14:30.309Z,0.57
2023-01-25T08:15:30.236Z,0.57
2023-01-25T08:16:30.240Z,0.52
2023-01-25T08:17:30.226Z,0.53
2023-01-25T08:18:30.241Z,0.53
2023-01-25T08:19:30.955Z,0.57
2023-01-25T08:20:30.181Z,0.57
2023-01-25T08:21:30.311Z,0.58
2023-01-25T08:22:31.159Z,0.58
2023-01-25T08:23:30.180Z,0.58
2023-01-25T08:24:30.227Z,0.60
2023-01-25T08:25:30.163Z,0.61
2023-01-25T08:26:30.137Z,0.61
2023-01-25T08:27:31.993Z,0.60
2023-01-25T08:28:30.434Z,0.58
2023-01-25T08:29:33.399Z,0.58
2023-01-25T08:30:30.105Z,0.57
2023-01-25T08:31:30.131Z,0.58
2023-01-25T08:32:30.175Z,0.58
2023-01-25T08:33:30.782Z,0.60
2023-01-25T08:34:30.048Z,0.62
2023-01-25T08:35:30.067Z,0.64
2023-01-25T08:36:30.076Z,0.62
2023-01-25T08:37:30.038Z,0.62
2023-01-25T08:38:30.041Z,0.62
2023-01-25T08:39:29.980Z,0.62
2023-01-25T08:40:30.041Z,0.61
2023-01-25T08:41:29.997Z,0.60
2023-01-25T08:42:29.993Z,0.60
2023-01-25T08:43:47.925Z,0.65
2023-01-25T08:44:29.960Z,0.67
2023-01-25T08:45:35.039Z,0.68
2023-01-25T08:46:32.112Z,0.68
2023-01-25T08:47:33.160Z,0.70
2023-01-25T08:49:53.295Z,0.72
2023-01-25T08:50:56.466Z,0.72
2023-01-25T08:51:53.480Z,0.75
2023-01-25T08:52:51.682Z,0.75
2023-01-25T08:54:00.579Z,0.76
2023-01-25T08:54:53.599Z,0.72
2023-01-25T08:55:51.676Z,0.71
2023-01-25T08:56:51.667Z,0.68
2023-01-25T08:57:51.785Z,0.64
2023-01-25T09:00:27.555Z,0.62
2023-01-25T09:00:33.556Z,0.60
2023-01-25T09:01:33.008Z,0.57
2023-01-25T09:02:32.496Z,0.53
2023-01-25T09:03:32.605Z,0.49
2023-01-25T09:04:32.512Z,0.48
2023-01-25T09:05:32.549Z,0.48
2023-01-25T09:06:32.442Z,0.49
2023-01-25T09:08:51.007Z,0.49
2023-01-25T09:11:10.590Z,0.48
2023-01-25T09:12:10.791Z,0.46
2023-01-25T09:13:10.573Z,0.46
2023-01-25T09:14:10.569Z,0.48
2023-01-25T09:17:02.131Z,0.45
2023-01-25T09:20:11.834Z,0.48
2023-01-25T09:22:31.230Z,0.51
2023-01-25T09:23:31.734Z,0.49
2023-01-25T09:24:31.269Z,0.48
2023-01-25T09:25:41.938Z,0.51
2023-01-25T09:26:31.516Z,0.51
2023-01-25T09:27:31.719Z,0.53
2023-01-25T09:28:32.886Z,0.53
2023-01-25T09:29:31.687Z,0.58
2023-01-25T09:30:45.564Z,0.60
2023-01-25T09:31:46.599Z,0.61
2023-01-25T09:32:34.371Z,0.60
2023-01-25T09:33:31.164Z,0.61
2023-01-25T09:34:31.306Z,0.62
2023-01-25T09:35:31.109Z,0.64
2023-01-25T09:36:32.128Z,0.65
2023-01-25T09:37:31.093Z,0.64
2023-01-25T09:38:31.074Z,0.62
2023-01-25T09:39:31.077Z,0.65
2023-01-25T09:40:31.053Z,0.65
2023-01-25T09:41:31.086Z,0.65
2023-01-25T09:42:31.070Z,0.64
2023-01-25T09:43:31.126Z,0.62
2023-01-25T09:44:31.046Z,0.60
2023-01-25T09:45:31.002Z,0.60
2023-01-25T09:46:31.009Z,0.60
2023-01-25T09:47:31.170Z,0.57
2023-01-25T09:48:31.085Z,0.58
2023-01-25T09:49:30.960Z,0.57
2023-01-25T09:50:30.988Z,0.57
2023-01-25T09:51:30.932Z,0.58
2023-01-25T09:52:31.319Z,0.57
2023-01-25T09:53:42.296Z,0.57
2023-01-25T09:54:33.770Z,0.53
2023-01-25T09:55:33.503Z,0.53
2023-01-25T09:56:33.133Z,0.51
2023-01-25T09:57:30.876Z,0.51
2023-01-25T09:58:30.905Z,0.51
2023-01-25T09:59:30.889Z,0.52
2023-01-25T10:00:30.822Z,0.52
2023-01-25T10:01:38.565Z,0.57
2023-01-25T10:02:30.931Z,0.52
2023-01-25T10:03:30.842Z,0.53
2023-01-25T10:04:30.785Z,0.53
2023-01-25T10:05:30.789Z,0.60
2023-01-25T10:06:46.124Z,0.57
2023-01-25T10:07:49.086Z,0.53
2023-01-25T10:08:31.779Z,0.52
2023-01-25T10:09:30.796Z,0.53
2023-01-25T10:10:30.759Z,0.52
2023-01-25T10:11:30.731Z,0.51
2023-01-25T10:12:30.781Z,0.48
2023-01-25T10:13:30.747Z,0.45
2023-01-25T10:14:30.693Z,0.46
2023-01-25T10:15:30.667Z,0.46
2023-01-25T10:16:32.014Z,0.46
2023-01-25T10:17:30.661Z,0.43
2023-01-25T10:18:30.636Z,0.42
2023-01-25T10:19:30.654Z,0.42
2023-01-25T10:20:30.624Z,0.42
2023-01-25T10:21:30.593Z,0.42
2023-01-25T10:22:30.651Z,0.43
2023-01-25T10:23:30.627Z,0.43
2023-01-25T10:24:30.621Z,0.43
2023-01-25T10:25:30.622Z,0.43
2023-01-25T10:26:30.548Z,0.45
2023-01-25T10:27:30.617Z,0.48
2023-01-25T10:28:30.615Z,0.48
2023-01-25T10:29:30.517Z,0.49
2023-01-25T10:30:30.497Z,0.45
2023-01-25T10:31:30.619Z,0.46
2023-01-25T10:32:30.480Z,0.46
2023-01-25T10:33:30.630Z,0.51
2023-01-25T10:34:30.507Z,0.51
2023-01-25T10:35:35.677Z,0.57
2023-01-25T10:36:30.500Z,0.60
2023-01-25T10:37:30.429Z,0.61
2023-01-25T10:38:30.415Z,0.61
2023-01-25T10:39:30.423Z,0.58
2023-01-25T10:40:30.404Z,0.58
2023-01-25T10:41:30.388Z,0.45
2023-01-25T10:42:30.424Z,0.41
2023-01-25T10:43:30.371Z,0.39
2023-01-25T10:44:30.362Z,0.41
2023-01-25T10:45:30.357Z,0.41
2023-01-25T10:46:30.337Z,0.42
2023-01-25T10:47:30.549Z,0.43
2023-01-25T10:48:30.321Z,0.46
2023-01-25T10:49:30.701Z,0.49
2023-01-25T10:50:30.409Z,0.52
2023-01-25T10:51:31.316Z,0.52
2023-01-25T10:52:30.290Z,0.57
2023-01-25T10:53:30.243Z,0.57
2023-01-25T10:54:30.370Z,0.57
2023-01-25T10:55:31.185Z,0.58
2023-01-25T10:56:30.201Z,0.61
2023-01-25T10:57:30.242Z,0.61
2023-01-25T10:58:30.218Z,0.62
2023-01-25T10:59:30.279Z,0.62
2023-01-25T11:00:30.854Z,0.64
2023-01-25T11:01:30.197Z,0.65
2023-01-25T11:02:30.236Z,0.67
2023-01-25T11:03:30.151Z,0.68
2023-01-25T11:04:30.163Z,0.67
2023-01-25T11:05:30.185Z,0.68
2023-01-25T11:06:30.091Z,0.68
2023-01-25T11:07:30.111Z,0.68
2023-01-25T11:08:30.143Z,0.70
2023-01-25T11:09:30.129Z,0.70
2023-01-25T11:10:30.122Z,0.70
2023-01-25T11:11:30.049Z,0.64
2023-01-25T11:12:30.028Z,0.61
2023-01-25T11:13:30.036Z,0.58
2023-01-25T11:14:30.053Z,0.57
2023-01-25T11:15:30.018Z,0.57
2023-01-25T11:16:30.007Z,0.46
2023-01-25T11:17:29.986Z,0.45
2023-01-25T11:18:29.984Z,0.46
2023-01-25T11:19:30.079Z,0.49
2023-01-25T11:20:29.949Z,0.49
2023-01-25T11:21:29.995Z,0.51
2023-01-25T11:22:30.161Z,0.51
2023-01-25T11:23:29.907Z,0.58
2023-01-25T11:24:29.912Z,0.61
2023-01-25T11:25:29.956Z,0.53
2023-01-25T11:26:29.869Z,0.53
2023-01-25T11:27:29.873Z,0.57
2023-01-25T11:28:29.856Z,0.52
2023-01-25T11:29:29.851Z,0.53
2023-01-25T11:30:29.877Z,0.57
2023-01-25T11:31:29.976Z,0.53
2023-01-25T11:32:29.845Z,0.57
2023-01-25T11:33:29.804Z,0.60
2023-01-25T11:34:29.829Z,0.61
2023-01-25T11:35:29.811Z,0.64
2023-01-25T11:36:29.793Z,0.64
2023-01-25T11:37:29.770Z,0.64
2023-01-25T11:38:29.740Z,0.67
2023-01-25T11:39:29.795Z,0.68
2023-01-25T11:40:29.748Z,0.68
2023-01-25T11:41:29.753Z,0.67
2023-01-25T11:42:29.708Z,0.68
2023-01-25T11:43:29.753Z,0.70
2023-01-25T11:44:29.752Z,0.70
2023-01-25T11:45:29.664Z,0.72
2023-01-25T11:46:29.721Z,0.76
2023-01-25T11:47:29.648Z,0.75
2023-01-25T11:48:29.643Z,0.76
2023-01-25T11:49:29.635Z,0.76
2023-01-25T11:50:29.605Z,0.75
2023-01-25T11:51:29.696Z,0.72
2023-01-25T11:52:29.595Z,0.72
2023-01-25T11:53:29.628Z,0.75
2023-01-25T11:54:29.595Z,0.72
2023-01-25T11:55:29.590Z,0.72
2023-01-25T11:56:29.553Z,0.76
2023-01-25T11:57:29.536Z,0.78
2023-01-25T11:58:29.850Z,0.80
2023-01-25T11:59:29.548Z,0.85
2023-01-25T12:00:29.528Z,0.85
2023-01-25T12:01:29.519Z,0.82
2023-01-25T12:02:29.524Z,0.79
2023-01-25T12:03:29.462Z,0.79
2023-01-25T12:04:29.513Z,0.78
2023-01-25T12:05:29.456Z,0.80
2023-01-25T12:06:29.467Z,0.80
2023-01-25T12:07:29.450Z,0.82
2023-01-25T12:08:32.099Z,0.80
2023-01-25T12:09:29.395Z,0.80
2023-01-25T12:10:29.408Z,0.80
2023-01-25T12:11:29.415Z,0.82
2023-01-25T12:12:30.185Z,0.78
2023-01-25T12:13:29.352Z,0.79
2023-01-25T12:14:29.379Z,0.79
2023-01-25T12:15:30.084Z,0.76
2023-01-25T12:16:29.400Z,0.76
2023-01-25T12:17:29.306Z,0.72
2023-01-25T12:18:29.311Z,0.75
2023-01-25T12:19:29.290Z,0.75
2023-01-25T12:20:29.298Z,0.76
2023-01-25T12:21:31.527Z,0.78
2023-01-25T12:22:29.265Z,0.79
2023-01-25T12:23:29.286Z,0.80
2023-01-25T12:24:29.370Z,0.82
2023-01-25T12:25:29.231Z,0.85
2023-01-25T12:26:29.241Z,0.79
2023-01-25T12:27:29.215Z,0.79
2023-01-25T12:28:29.337Z,0.78
2023-01-25T12:29:29.173Z,0.78
2023-01-25T12:30:29.245Z,0.78
2023-01-25T12:31:29.227Z,0.78
2023-01-25T12:32:29.161Z,0.82
2023-01-25T12:33:29.129Z,0.83
2023-01-25T12:34:29.208Z,0.83
2023-01-25T12:35:29.111Z,0.80
2023-01-25T12:36:29.121Z,0.79
2023-01-25T12:37:29.092Z,0.79
2023-01-25T12:38:29.088Z,0.80
2023-01-25T12:39:29.100Z,0.82
2023-01-25T12:40:29.102Z,0.82
2023-01-25T12:41:29.041Z,0.82
2023-01-25T12:42:29.109Z,0.83
2023-01-25T12:43:29.025Z,0.82
2023-01-25T12:44:29.005Z,0.85
2023-01-25T12:45:29.031Z,0.85
2023-01-25T12:46:29.049Z,0.78
2023-01-25T12:47:29.026Z,0.72
2023-01-25T12:48:28.969Z,0.70
2023-01-25T12:49:28.957Z,0.71
2023-01-25T12:50:29.006Z,0.68
2023-01-25T12:51:28.927Z,0.67
2023-01-25T12:52:28.933Z,0.67
2023-01-25T12:53:28.977Z,0.68
2023-01-25T12:54:28.906Z,0.68
2023-01-25T12:55:29.003Z,0.70
2023-01-25T12:56:28.877Z,0.72
2023-01-25T12:57:28.947Z,0.76
2023-01-25T12:58:37.364Z,0.75
2023-01-25T12:59:28.862Z,0.71
2023-01-25T13:00:29.709Z,0.72
2023-01-25T13:01:28.849Z,0.75
2023-01-25T13:02:28.928Z,0.75
2023-01-25T13:03:28.812Z,0.76
2023-01-25T13:04:29.678Z,0.75
2023-01-25T13:05:28.818Z,0.72
2023-01-25T13:06:28.790Z,0.75
2023-01-25T13:07:28.754Z,0.67
2023-01-25T13:08:32.004Z,0.64
2023-01-25T13:09:29.770Z,0.60
2023-01-25T13:10:28.813Z,0.58
2023-01-25T13:11:28.719Z,0.52
2023-01-25T13:12:28.692Z,0.49
2023-01-25T13:13:28.723Z,0.48
2023-01-25T13:14:28.677Z,0.46
2023-01-25T13:15:28.707Z,0.48
2023-01-25T13:16:28.735Z,0.48
2023-01-25T13:17:29.180Z,0.48
2023-01-25T13:18:28.634Z,0.46
2023-01-25T13:19:28.677Z,0.45
2023-01-25T13:20:28.721Z,0.43
2023-01-25T13:21:28.818Z,0.46
2023-01-25T13:22:29.291Z,0.48
2023-01-25T13:23:28.625Z,0.49
2023-01-25T13:24:33.851Z,0.51
2023-01-25T13:25:28.623Z,0.53
2023-01-25T13:26:28.685Z,0.57
2023-01-25T13:27:28.585Z,0.58
2023-01-25T13:28:28.542Z,0.58
2023-01-25T13:29:28.512Z,0.58
2023-01-25T13:30:28.656Z,0.58
2023-01-25T13:31:29.915Z,0.57
2023-01-25T13:32:28.549Z,0.57
2023-01-25T13:33:28.557Z,0.48
2023-01-25T13:34:28.490Z,0.42
2023-01-25T13:35:30.259Z,0.42
2023-01-25T13:36:35.801Z,0.43
2023-01-25T13:37:28.545Z,0.45
2023-01-25T13:38:31.058Z,0.45
2023-01-25T13:39:30.430Z,0.48
2023-01-25T13:40:39.313Z,0.46
2023-01-25T13:41:28.520Z,0.45
2023-01-25T13:42:28.474Z,0.43
2023-01-25T13:43:29.083Z,0.41
2023-01-25T13:44:30.058Z,0.39
2023-01-25T13:45:28.347Z,0.41
2023-01-25T13:46:28.372Z,0.41
2023-01-25T13:47:28.335Z,0.33
2023-01-25T13:48:28.300Z,0.33
2023-01-25T13:49:28.375Z,0.36
2023-01-25T13:50:28.280Z,0.38
2023-01-25T13:51:28.319Z,0.41
2023-01-25T13:52:28.255Z,0.43
2023-01-25T13:53:28.263Z,0.45
2023-01-25T13:54:28.249Z,0.43
2023-01-25T13:55:28.333Z,0.38
2023-01-25T13:56:28.259Z,0.38
2023-01-25T13:57:28.205Z,0.38
2023-01-25T13:58:28.208Z,0.38
2023-01-25T13:59:28.249Z,0.39
2023-01-25T14:00:28.726Z,0.41
2023-01-25T14:01:28.178Z,0.42
2023-01-25T14:02:28.159Z,0.41
2023-01-25T14:03:28.195Z,0.41
2023-01-25T14:04:28.179Z,0.39
2023-01-25T14:05:28.114Z,0.39
2023-01-25T14:06:28.134Z,0.41
2023-01-25T14:07:28.085Z,0.42
2023-01-25T14:08:28.099Z,0.42
2023-01-25T14:09:28.088Z,0.43
2023-01-25T14:10:28.080Z,0.45
2023-01-25T14:11:28.058Z,0.43
2023-01-25T14:12:28.054Z,0.43
2023-01-25T14:13:28.063Z,0.43
2023-01-25T14:14:28.053Z,0.46
2023-01-25T14:15:28.041Z,0.43
2023-01-25T14:16:28.048Z,0.42
2023-01-25T14:17:27.987Z,0.41
2023-01-25T14:18:27.970Z,0.41
2023-01-25T14:19:27.950Z,0.38
2023-01-25T14:20:27.960Z,0.34
2023-01-25T14:21:27.935Z,0.38
2023-01-25T14:22:27.976Z,0.38
2023-01-25T14:23:27.926Z,0.38
2023-01-25T14:24:27.940Z,0.39
2023-01-25T14:25:27.941Z,0.34
2023-01-25T14:26:27.885Z,0.34
2023-01-25T14:27:27.911Z,0.34
2023-01-25T14:28:27.864Z,0.34
2023-01-25T14:29:33.151Z,0.36
2023-01-25T14:30:27.907Z,0.34
2023-01-25T14:31:27.872Z,0.31
2023-01-25T14:32:31.183Z,0.33
2023-01-25T14:33:27.846Z,0.31
2023-01-25T14:34:27.798Z,0.33
2023-01-25T14:35:42.590Z,0.33
2023-01-25T14:36:27.838Z,0.34
2023-01-25T14:37:27.781Z,0.36
2023-01-25T14:38:27.755Z,0.39
2023-01-25T14:39:27.770Z,0.41
2023-01-25T14:40:27.735Z,0.43
2023-01-25T14:41:27.768Z,0.46
2023-01-25T14:42:27.759Z,0.46
2023-01-25T14:43:27.691Z,0.46
2023-01-25T14:44:27.706Z,0.46
2023-01-25T14:45:27.675Z,0.48
2023-01-25T14:46:27.679Z,0.48